createdAt,value
2022-12-01T00:01:36.881Z,61.81
2022-12-01T00:04:05.636Z,61.49
2022-12-01T00:06:34.000Z,61.15
2022-12-01T00:09:20.935Z,60.81
2022-12-01T00:11:49.508Z,60.48
2022-12-01T00:14:18.015Z,60.27
2022-12-01T00:16:46.578Z,59.95
2022-12-01T00:19:15.361Z,59.25
2022-12-01T00:21:43.595Z,58.14
2022-12-01T00:24:12.508Z,58.18
2022-12-01T00:26:41.149Z,58.56
2022-12-01T00:29:09.720Z,59.15
2022-12-01T00:31:38.159Z,59.73
2022-12-01T00:34:11.248Z,60.33
2022-12-01T00:36:39.904Z,60.81
2022-12-01T00:39:09.738Z,62.02
2022-12-01T00:41:37.980Z,63.60
2022-12-01T00:44:06.492Z,63.55
2022-12-01T00:46:35.305Z,63.46
2022-12-01T00:49:04.328Z,62.93
2022-12-01T00:51:32.673Z,62.78
2022-12-01T00:54:01.251Z,62.53
2022-12-01T00:56:29.439Z,62.23
2022-12-01T00:58:57.732Z,61.85
2022-12-01T01:01:26.539Z,61.43
2022-12-01T01:03:54.843Z,60.95
2022-12-01T01:06:23.147Z,60.61
2022-12-01T01:08:51.405Z,60.29
2022-12-01T01:11:19.648Z,60.05
2022-12-01T01:13:48.280Z,59.10
2022-12-01T01:16:19.640Z,58.06
2022-12-01T01:18:48.605Z,58.19
2022-12-01T01:21:19.767Z,58.56
2022-12-01T01:23:50.017Z,59.05
2022-12-01T01:26:25.657Z,59.56
2022-12-01T01:28:57.179Z,59.96
2022-12-01T01:31:27.509Z,60.51
2022-12-01T01:33:57.077Z,61.01
2022-12-01T01:36:26.084Z,62.31
2022-12-01T01:38:55.534Z,63.84
2022-12-01T01:41:24.825Z,63.82
2022-12-01T01:43:59.363Z,63.62
2022-12-01T01:46:30.094Z,63.13
2022-12-01T01:49:09.997Z,62.94
2022-12-01T01:51:52.938Z,62.72
2022-12-01T01:54:26.863Z,62.32
2022-12-01T01:56:57.541Z,61.67
2022-12-01T01:59:30.491Z,61.39
2022-12-01T02:02:08.887Z,61.04
2022-12-01T02:04:40.666Z,60.92
2022-12-01T02:07:11.721Z,60.54
2022-12-01T02:09:40.041Z,60.27
2022-12-01T02:12:17.340Z,60.09
2022-12-01T02:15:23.679Z,59.22
2022-12-01T02:18:01.404Z,57.79
2022-12-01T02:21:04.460Z,58.18
2022-12-01T02:23:35.542Z,58.51
2022-12-01T02:26:43.961Z,57.74
2022-12-01T02:29:23.439Z,58.97
2022-12-01T02:32:10.024Z,60.44
2022-12-01T02:34:46.895Z,60.94
2022-12-01T02:37:31.552Z,62.45
2022-12-01T02:40:39.694Z,64.14
2022-12-01T02:43:32.225Z,64.33
2022-12-01T02:46:09.559Z,63.89
2022-12-01T02:48:41.261Z,63.27
2022-12-01T02:51:17.300Z,62.60
2022-12-01T02:53:45.973Z,62.28
2022-12-01T02:56:16.145Z,61.86
2022-12-01T02:58:44.519Z,61.55
2022-12-01T03:01:53.600Z,61.43
2022-12-01T03:04:46.973Z,61.01
2022-12-01T03:07:37.111Z,60.88
2022-12-01T03:10:37.981Z,60.71
2022-12-01T03:13:23.010Z,60.59
2022-12-01T03:16:13.995Z,60.15
2022-12-01T03:18:56.573Z,58.88
2022-12-01T03:21:43.103Z,58.65
2022-12-01T03:24:16.112Z,57.45
2022-12-01T03:26:52.145Z,58.42
2022-12-01T03:29:45.024Z,58.97
2022-12-01T03:32:25.074Z,59.57
2022-12-01T03:34:59.276Z,60.45
2022-12-01T03:37:36.216Z,61.32
2022-12-01T03:40:09.023Z,62.59
2022-12-01T03:42:52.941Z,63.79
2022-12-01T03:45:31.605Z,63.91
2022-12-01T03:48:00.584Z,63.61
2022-12-01T03:50:44.915Z,63.03
2022-12-01T03:53:26.003Z,62.81
2022-12-01T03:56:03.590Z,62.17
2022-12-01T03:58:41.926Z,61.54
2022-12-01T04:01:10.369Z,61.18
2022-12-01T04:03:38.903Z,60.77
2022-12-01T04:06:08.119Z,60.52
2022-12-01T04:08:37.681Z,60.26
2022-12-01T04:11:32.137Z,59.36
2022-12-01T04:14:01.380Z,57.93
2022-12-01T04:16:29.625Z,58.10
2022-12-01T04:18:57.885Z,58.91
2022-12-01T04:21:26.635Z,59.28
2022-12-01T04:24:01.153Z,59.77
2022-12-01T04:26:32.477Z,60.13
2022-12-01T04:29:02.581Z,61.23
2022-12-01T04:31:31.731Z,62.36
2022-12-01T04:34:00.251Z,63.52
2022-12-01T04:36:32.079Z,63.54
2022-12-01T04:39:01.345Z,63.32
2022-12-01T04:41:29.545Z,62.78
2022-12-01T04:43:57.899Z,62.30
2022-12-01T04:46:26.704Z,61.59
2022-12-01T04:48:54.932Z,61.28
2022-12-01T04:51:23.603Z,61.02
2022-12-01T04:53:52.205Z,60.58
2022-12-01T04:56:20.449Z,60.20
2022-12-01T04:58:49.174Z,59.18
2022-12-01T05:01:18.791Z,58.13
2022-12-01T05:03:51.801Z,58.60
2022-12-01T05:06:23.935Z,58.84
2022-12-01T05:08:56.422Z,59.18
2022-12-01T05:11:26.261Z,59.65
2022-12-01T05:13:54.467Z,60.02
2022-12-01T05:16:25.823Z,60.36
2022-12-01T05:19:18.608Z,60.61
2022-12-01T05:21:48.917Z,60.74
2022-12-01T05:24:19.029Z,62.08
2022-12-01T05:26:47.793Z,63.64
2022-12-01T05:29:16.096Z,63.66
2022-12-01T05:31:46.589Z,63.18
2022-12-01T05:34:15.052Z,62.65
2022-12-01T05:36:43.590Z,62.14
2022-12-01T05:39:12.100Z,61.62
2022-12-01T05:41:40.426Z,61.03
2022-12-01T05:44:08.909Z,60.58
2022-12-01T05:46:37.378Z,60.22
2022-12-01T05:49:06.465Z,59.43
2022-12-01T05:51:34.809Z,58.40
2022-12-01T05:54:03.808Z,58.61
2022-12-01T05:56:32.158Z,58.96
2022-12-01T05:59:00.861Z,59.79
2022-12-01T06:01:29.508Z,60.18
2022-12-01T06:03:57.751Z,60.61
2022-12-01T06:06:26.391Z,60.95
2022-12-01T06:08:55.138Z,61.34
2022-12-01T06:11:23.322Z,62.38
2022-12-01T06:13:51.822Z,63.77
2022-12-01T06:16:20.249Z,63.74
2022-12-01T06:18:48.620Z,63.47
2022-12-01T06:21:17.571Z,62.89
2022-12-01T06:23:46.014Z,62.54
2022-12-01T06:26:14.256Z,62.07
2022-12-01T06:28:42.720Z,61.73
2022-12-01T06:31:11.045Z,61.39
2022-12-01T06:33:39.347Z,61.00
2022-12-01T06:36:08.567Z,60.71
2022-12-01T06:38:37.465Z,60.17
2022-12-01T06:41:05.929Z,59.23
2022-12-01T06:43:38.200Z,58.15
2022-12-01T06:46:06.829Z,58.19
2022-12-01T06:48:35.225Z,58.66
2022-12-01T06:51:03.960Z,59.14
2022-12-01T06:53:32.619Z,59.66
2022-12-01T06:56:02.633Z,60.26
2022-12-01T06:58:31.367Z,61.09
2022-12-01T07:01:00.452Z,61.26
2022-12-01T07:03:28.864Z,62.88
2022-12-01T07:06:01.847Z,63.90
2022-12-01T07:08:32.286Z,63.90
2022-12-01T07:11:02.680Z,63.25
2022-12-01T07:13:33.765Z,62.59
2022-12-01T07:16:03.547Z,62.40
2022-12-01T07:18:33.606Z,61.73
2022-12-01T07:21:04.376Z,61.32
2022-12-01T07:23:33.349Z,60.82
2022-12-01T07:26:13.888Z,60.51
2022-12-01T07:28:43.256Z,60.35
2022-12-01T07:31:12.886Z,59.35
2022-12-01T07:33:41.640Z,58.18
2022-12-01T07:36:12.014Z,58.44
2022-12-01T07:38:41.562Z,58.68
2022-12-01T07:41:15.983Z,59.28
2022-12-01T07:43:44.978Z,59.62
2022-12-01T07:46:23.681Z,60.08
2022-12-01T07:48:54.107Z,60.47
2022-12-01T07:51:23.985Z,61.00
2022-12-01T07:53:53.418Z,61.38
2022-12-01T07:56:23.222Z,62.64
2022-12-01T07:58:51.807Z,64.05
2022-12-01T08:01:22.780Z,63.99
2022-12-01T08:03:54.510Z,63.71
2022-12-01T08:06:24.157Z,63.24
2022-12-01T08:08:53.022Z,62.65
2022-12-01T08:11:24.261Z,61.41
2022-12-01T08:13:53.704Z,60.98
2022-12-01T08:16:24.326Z,60.72
2022-12-01T08:18:53.275Z,60.44
2022-12-01T08:21:23.515Z,59.40
2022-12-01T08:23:57.211Z,58.06
2022-12-01T08:26:27.426Z,57.93
2022-12-01T08:28:56.459Z,58.27
2022-12-01T08:31:28.359Z,58.64
2022-12-01T08:33:57.200Z,59.12
2022-12-01T08:36:25.732Z,59.49
2022-12-01T08:38:56.135Z,59.94
2022-12-01T08:41:24.884Z,60.34
2022-12-01T08:43:58.473Z,60.61
2022-12-01T08:46:29.370Z,60.86
2022-12-01T08:48:58.191Z,61.18
2022-12-01T08:51:27.116Z,61.58
2022-12-01T08:53:57.991Z,62.36
2022-12-01T08:56:41.703Z,63.68
2022-12-01T08:59:10.501Z,63.81
2022-12-01T09:01:52.220Z,62.88
2022-12-01T09:04:24.376Z,62.60
2022-12-01T09:06:54.564Z,61.87
2022-12-01T09:09:28.787Z,61.14
2022-12-01T09:11:57.647Z,60.48
2022-12-01T09:14:26.121Z,59.27
2022-12-01T09:16:54.712Z,58.08
2022-12-01T09:19:24.992Z,58.78
2022-12-01T09:21:53.660Z,59.66
2022-12-01T09:24:22.689Z,60.01
2022-12-01T09:26:54.429Z,60.24
2022-12-01T09:29:23.276Z,60.59
2022-12-01T09:31:51.972Z,61.50
2022-12-01T09:34:20.676Z,61.96
2022-12-01T09:36:49.534Z,62.90
2022-12-01T09:39:20.252Z,63.81
2022-12-01T09:42:08.488Z,63.13
2022-12-01T09:44:41.319Z,62.72
2022-12-01T09:47:33.899Z,61.80
2022-12-01T09:50:07.363Z,61.69
2022-12-01T09:52:43.588Z,60.97
2022-12-01T09:55:16.384Z,60.31
2022-12-01T09:57:48.507Z,60.48
2022-12-01T10:00:23.016Z,60.31
2022-12-01T10:03:10.980Z,60.86
2022-12-01T10:06:26.132Z,58.89
2022-12-01T10:08:52.879Z,57.53
2022-12-01T10:11:29.983Z,57.67
2022-12-01T10:14:00.084Z,58.67
2022-12-01T10:16:40.972Z,59.04
2022-12-01T10:19:18.596Z,58.79
2022-12-01T10:22:02.544Z,59.72
2022-12-01T10:24:58.828Z,59.51
2022-12-01T10:27:47.982Z,59.45
2022-12-01T10:30:22.650Z,59.59
2022-12-01T10:33:13.449Z,59.87
2022-12-01T10:35:42.056Z,60.98
2022-12-01T10:38:31.926Z,60.56
2022-12-01T10:41:02.377Z,61.09
2022-12-01T10:43:45.863Z,61.01
2022-12-01T10:46:46.096Z,60.93
2022-12-01T10:49:16.607Z,60.90
2022-12-01T10:51:53.272Z,61.33
2022-12-01T10:54:23.541Z,61.28
2022-12-01T10:56:57.620Z,61.38
2022-12-01T10:59:55.755Z,61.40
2022-12-01T11:02:27.522Z,61.31
2022-12-01T11:04:58.574Z,61.59
2022-12-01T11:07:42.808Z,61.71
2022-12-01T11:10:17.352Z,61.59
2022-12-01T11:12:54.107Z,61.69
2022-12-01T11:15:28.230Z,61.54
2022-12-01T11:18:05.693Z,61.42
2022-12-01T11:20:40.251Z,61.38
2022-12-01T11:23:26.961Z,61.22
2022-12-01T11:26:26.781Z,61.18
2022-12-01T11:28:59.400Z,61.09
2022-12-01T11:31:43.513Z,61.19
2022-12-01T11:34:26.101Z,61.10
2022-12-01T11:37:17.015Z,61.95
2022-12-01T11:39:48.537Z,61.29
2022-12-01T11:42:27.139Z,61.21
2022-12-01T11:45:06.087Z,61.19
2022-12-01T11:47:34.948Z,61.26
2022-12-01T11:50:25.415Z,61.21
2022-12-01T11:52:54.075Z,61.19
2022-12-01T11:55:25.123Z,61.47
2022-12-01T11:57:56.800Z,61.27
2022-12-01T12:00:29.104Z,61.26
2022-12-01T12:03:21.589Z,61.22
2022-12-01T12:06:01.514Z,61.42
2022-12-01T12:09:03.741Z,61.04
2022-12-01T12:11:52.354Z,61.54
2022-12-01T12:14:55.466Z,61.47
2022-12-01T12:17:52.401Z,61.59
2022-12-01T12:20:41.935Z,61.67
2022-12-01T12:23:28.177Z,61.73
2022-12-01T12:26:25.040Z,61.80
2022-12-01T12:29:47.454Z,61.71
2022-12-01T12:32:50.379Z,61.54
2022-12-01T12:35:54.237Z,61.78
2022-12-01T12:38:46.460Z,61.78
2022-12-01T12:41:29.893Z,61.77
2022-12-01T12:44:20.151Z,61.94
2022-12-01T12:47:00.560Z,62.06
2022-12-01T12:49:55.907Z,61.99
2022-12-01T12:52:29.791Z,61.98
2022-12-01T12:55:03.437Z,62.15
2022-12-01T12:57:44.156Z,62.89
2022-12-01T13:00:36.933Z,64.19
2022-12-01T13:03:13.516Z,64.41
2022-12-01T13:06:08.312Z,63.37
2022-12-01T13:08:50.366Z,63.07
2022-12-01T13:11:31.271Z,61.70
2022-12-01T13:14:24.834Z,59.97
2022-12-01T13:16:58.441Z,58.18
2022-12-01T13:19:34.806Z,57.73
2022-12-01T13:22:07.346Z,57.68
2022-12-01T13:24:36.295Z,58.28
2022-12-01T13:27:13.680Z,58.30
2022-12-01T13:29:50.970Z,58.42
2022-12-01T13:32:30.881Z,58.55
2022-12-01T13:35:02.089Z,58.84
2022-12-01T13:37:34.035Z,59.04
2022-12-01T13:40:20.172Z,59.13
2022-12-01T13:43:08.562Z,59.20
2022-12-01T13:45:40.690Z,59.31
2022-12-01T13:48:32.564Z,59.48
2022-12-01T13:51:03.046Z,59.52
2022-12-01T13:53:36.990Z,59.77
2022-12-01T13:56:17.706Z,59.98
2022-12-01T13:58:50.136Z,60.10
2022-12-01T14:01:21.929Z,60.33
2022-12-01T14:04:01.736Z,60.46
2022-12-01T14:06:39.202Z,60.55
2022-12-01T14:09:18.073Z,60.68
2022-12-01T14:12:15.042Z,60.81
2022-12-01T14:14:54.161Z,60.90
2022-12-01T14:17:31.966Z,61.09
2022-12-01T14:20:21.857Z,61.24
2022-12-01T14:23:15.165Z,61.37
2022-12-01T14:25:58.748Z,61.54
2022-12-01T14:28:55.715Z,61.77
2022-12-01T14:31:25.729Z,61.74
2022-12-01T14:34:12.136Z,61.97
2022-12-01T14:37:06.461Z,62.00
2022-12-01T14:39:42.203Z,62.04
2022-12-01T14:42:10.709Z,62.95
2022-12-01T14:44:47.853Z,64.13
2022-12-01T14:47:29.800Z,64.27
2022-12-01T14:50:10.061Z,63.83
2022-12-01T14:52:42.722Z,63.13
2022-12-01T14:55:18.274Z,62.13
2022-12-01T14:57:51.020Z,61.39
2022-12-01T15:00:22.920Z,60.01
2022-12-01T15:02:57.430Z,58.47
2022-12-01T15:05:28.301Z,57.98
2022-12-01T15:08:18.557Z,58.03
2022-12-01T15:10:59.572Z,58.18
2022-12-01T15:13:33.340Z,58.37
2022-12-01T15:16:05.186Z,58.63
2022-12-01T15:18:39.624Z,58.83
2022-12-01T15:21:19.737Z,59.09
2022-12-01T15:24:21.011Z,59.42
2022-12-01T15:26:52.772Z,59.63
2022-12-01T15:29:28.456Z,60.07
2022-12-01T15:32:02.792Z,60.09
2022-12-01T15:34:42.579Z,60.31
2022-12-01T15:37:15.381Z,60.32
2022-12-01T15:39:51.416Z,60.48
2022-12-01T15:42:25.043Z,60.63
2022-12-01T15:45:21.164Z,60.80
2022-12-01T15:47:52.012Z,60.83
2022-12-01T15:50:44.704Z,61.12
2022-12-01T15:53:26.125Z,61.19
2022-12-01T15:55:59.119Z,61.44
2022-12-01T15:58:31.346Z,61.68
2022-12-01T16:01:09.227Z,61.82
2022-12-01T16:03:56.460Z,61.94
2022-12-01T16:06:34.917Z,63.13
2022-12-01T16:09:07.634Z,64.44
2022-12-01T16:11:36.009Z,64.12
2022-12-01T16:14:20.716Z,63.45
2022-12-01T16:16:51.623Z,63.02
2022-12-01T16:19:27.088Z,62.07
2022-12-01T16:22:10.967Z,61.45
2022-12-01T16:24:54.719Z,60.09
2022-12-01T16:27:27.088Z,58.34
2022-12-01T16:29:57.398Z,57.99
2022-12-01T16:32:35.166Z,58.09
2022-12-01T16:35:04.471Z,58.29
2022-12-01T16:37:32.692Z,58.67
2022-12-01T16:40:01.208Z,58.99
2022-12-01T16:42:30.154Z,59.24
2022-12-01T16:44:58.462Z,59.52
2022-12-01T16:47:32.301Z,59.73
2022-12-01T16:50:00.691Z,59.96
2022-12-01T16:52:45.346Z,60.24
2022-12-01T16:55:38.561Z,60.37
2022-12-01T16:58:06.893Z,60.56
2022-12-01T17:00:36.103Z,60.89
2022-12-01T17:03:06.422Z,61.09
2022-12-01T17:05:34.846Z,61.26
2022-12-01T17:08:04.848Z,61.39
2022-12-01T17:10:34.108Z,61.60
2022-12-01T17:13:02.263Z,61.69
2022-12-01T17:15:32.343Z,61.76
2022-12-01T17:18:00.843Z,61.86
2022-12-01T17:20:29.094Z,61.95
2022-12-01T17:22:57.628Z,61.98
2022-12-01T17:25:25.993Z,62.05
2022-12-01T17:27:54.497Z,62.84
2022-12-01T17:30:24.204Z,64.08
2022-12-01T17:32:52.566Z,64.00
2022-12-01T17:35:20.769Z,63.41
2022-12-01T17:37:49.577Z,62.75
2022-12-01T17:40:18.135Z,62.09
2022-12-01T17:42:50.447Z,61.23
2022-12-01T17:45:19.814Z,59.92
2022-12-01T17:47:48.123Z,58.20
2022-12-01T17:50:16.809Z,57.77
2022-12-01T17:52:47.017Z,57.77
2022-12-01T17:55:15.302Z,57.99
2022-12-01T17:57:46.407Z,58.26
2022-12-01T18:00:15.524Z,58.58
2022-12-01T18:02:43.904Z,58.88
2022-12-01T18:05:12.525Z,59.17
2022-12-01T18:07:41.579Z,59.50
2022-12-01T18:10:10.193Z,59.80
2022-12-01T18:12:38.491Z,60.00
2022-12-01T18:15:07.713Z,60.24
2022-12-01T18:17:35.991Z,60.45
2022-12-01T18:20:05.994Z,60.68
2022-12-01T18:22:34.849Z,60.87
2022-12-01T18:25:03.399Z,61.07
2022-12-01T18:27:31.890Z,61.30
2022-12-01T18:30:00.589Z,61.49
2022-12-01T18:32:29.394Z,61.65
2022-12-01T18:34:58.100Z,61.79
2022-12-01T18:37:27.120Z,61.97
2022-12-01T18:39:56.296Z,62.93
2022-12-01T18:42:24.810Z,64.23
2022-12-01T18:44:53.290Z,64.14
2022-12-01T18:47:21.550Z,63.59
2022-12-01T18:49:50.238Z,62.89
2022-12-01T18:52:18.536Z,62.20
2022-12-01T18:54:46.782Z,61.62
2022-12-01T18:57:15.493Z,60.99
2022-12-01T18:59:43.944Z,59.77
2022-12-01T19:02:12.312Z,58.38
2022-12-01T19:04:41.678Z,57.96
2022-12-01T19:07:10.610Z,58.02
2022-12-01T19:09:38.908Z,58.27
2022-12-01T19:12:08.202Z,58.59
2022-12-01T19:14:36.980Z,58.94
2022-12-01T19:17:05.406Z,59.27
2022-12-01T19:19:37.347Z,59.61
2022-12-01T19:22:06.402Z,59.89
2022-12-01T19:24:35.043Z,60.20
2022-12-01T19:27:04.408Z,60.52
2022-12-01T19:29:32.759Z,60.78
2022-12-01T19:32:02.526Z,60.95
2022-12-01T19:34:30.836Z,61.23
2022-12-01T19:36:59.674Z,61.50
2022-12-01T19:39:28.459Z,61.66
2022-12-01T19:41:57.465Z,61.81
2022-12-01T19:44:26.059Z,61.93
2022-12-01T19:46:55.252Z,62.76
2022-12-01T19:49:23.512Z,64.17
2022-12-01T19:51:52.084Z,64.06
2022-12-01T19:54:21.780Z,63.36
2022-12-01T19:56:50.380Z,62.64
2022-12-01T19:59:18.971Z,61.90
2022-12-01T20:01:47.547Z,61.34
2022-12-01T20:04:16.137Z,60.17
2022-12-01T20:06:45.930Z,58.50
2022-12-01T20:09:14.435Z,58.16
2022-12-01T20:11:42.671Z,58.22
2022-12-01T20:14:12.094Z,58.34
2022-12-01T20:16:40.597Z,58.44
2022-12-01T20:19:08.839Z,58.77
2022-12-01T20:21:42.529Z,59.07
2022-12-01T20:24:16.401Z,59.24
2022-12-01T20:26:50.686Z,59.54
2022-12-01T20:29:22.741Z,59.79
2022-12-01T20:31:53.315Z,59.92
2022-12-01T20:34:28.910Z,60.15
2022-12-01T20:36:58.112Z,60.35
2022-12-01T20:39:27.225Z,60.63
2022-12-01T20:41:55.471Z,60.86
2022-12-01T20:44:24.018Z,61.07
2022-12-01T20:46:53.393Z,61.26
2022-12-01T20:49:21.553Z,61.47
2022-12-01T20:51:50.584Z,61.62
2022-12-01T20:54:30.265Z,61.76
2022-12-01T20:56:59.572Z,61.82
2022-12-01T20:59:28.994Z,62.61
2022-12-01T21:01:57.337Z,64.06
2022-12-01T21:04:26.277Z,64.09
2022-12-01T21:06:56.333Z,63.51
2022-12-01T21:09:25.975Z,62.86
2022-12-01T21:12:16.178Z,62.14
2022-12-01T21:14:49.014Z,61.90
2022-12-01T21:17:38.861Z,60.36
2022-12-01T21:20:21.690Z,58.60
2022-12-01T21:22:51.999Z,58.11
2022-12-01T21:25:24.513Z,58.29
2022-12-01T21:28:00.213Z,58.43
2022-12-01T21:30:30.016Z,58.67
2022-12-01T21:33:30.836Z,59.05
2022-12-01T21:36:01.139Z,59.16
2022-12-01T21:38:32.210Z,59.68
2022-12-01T21:41:00.716Z,59.97
2022-12-01T21:43:32.669Z,60.24
2022-12-01T21:46:14.009Z,60.40
2022-12-01T21:48:44.097Z,60.63
2022-12-01T21:51:24.531Z,60.90
2022-12-01T21:53:56.052Z,61.01
2022-12-01T21:56:29.405Z,61.22
2022-12-01T21:59:02.512Z,61.33
2022-12-01T22:01:32.833Z,61.44
2022-12-01T22:04:11.032Z,61.54
2022-12-01T22:06:51.657Z,61.63
2022-12-01T22:09:27.645Z,61.78
2022-12-01T22:12:00.193Z,61.98
2022-12-01T22:14:30.150Z,63.06
2022-12-01T22:17:07.115Z,65.10
2022-12-01T22:19:40.169Z,64.65
2022-12-01T22:22:24.002Z,63.92
2022-12-01T22:24:56.671Z,63.40
2022-12-01T22:27:39.287Z,62.48
2022-12-01T22:30:07.465Z,62.53
2022-12-01T22:33:00.729Z,62.91
2022-12-01T22:35:34.448Z,61.19
2022-12-01T22:38:09.058Z,57.73
2022-12-01T22:40:48.039Z,57.00
2022-12-01T22:43:16.531Z,57.03
2022-12-01T22:46:02.219Z,57.45
2022-12-01T22:48:36.119Z,57.77
2022-12-01T22:51:24.477Z,58.32
2022-12-01T22:54:17.369Z,58.65
2022-12-01T22:56:48.705Z,59.09
2022-12-01T22:59:22.926Z,59.79
2022-12-01T23:01:57.072Z,60.19
2022-12-01T23:04:40.127Z,60.66
2022-12-01T23:07:31.268Z,61.00
2022-12-01T23:10:20.364Z,61.31
2022-12-01T23:12:52.401Z,63.04
2022-12-01T23:15:32.596Z,65.06
2022-12-01T23:18:20.797Z,65.35
2022-12-01T23:20:52.345Z,64.89
2022-12-01T23:23:25.773Z,63.37
2022-12-01T23:25:55.047Z,62.31
2022-12-01T23:28:24.870Z,61.37
2022-12-01T23:30:55.703Z,59.85
2022-12-01T23:33:29.172Z,58.15
2022-12-01T23:36:10.988Z,58.00
2022-12-01T23:38:42.295Z,58.16
2022-12-01T23:41:25.615Z,58.72
2022-12-01T23:43:55.966Z,59.11
2022-12-01T23:46:27.803Z,59.81
2022-12-01T23:49:12.808Z,60.33
2022-12-01T23:51:48.026Z,60.75
2022-12-01T23:54:18.442Z,61.39
2022-12-01T23:57:17.980Z,62.86
2022-12-01T23:59:46.690Z,64.90
